createdAt,value
2018-03-15T00:00:43.249Z,10.43
2018-03-15T00:03:17.524Z,10.53
2018-03-15T00:05:45.792Z,8.70
2018-03-15T00:08:14.064Z,9.70
2018-03-15T00:10:42.198Z,11.43
2018-03-15T00:13:09.614Z,11.30
2018-03-15T00:15:37.678Z,11.47
2018-03-15T00:18:05.133Z,11.50
2018-03-15T00:20:32.488Z,10.00
2018-03-15T00:22:59.865Z,11.60
2018-03-15T00:25:27.253Z,12.77
2018-03-15T00:27:54.715Z,12.50
2018-03-15T00:30:22.115Z,15.10
2018-03-15T00:32:49.538Z,13.60
2018-03-15T00:35:17.030Z,11.70
2018-03-15T00:37:44.369Z,11.50
2018-03-15T00:40:12.651Z,12.23
2018-03-15T00:42:39.992Z,11.57
2018-03-15T00:45:08.296Z,13.07
2018-03-15T00:47:36.577Z,13.57
2018-03-15T00:50:03.992Z,13.53
2018-03-15T00:52:32.088Z,13.97
2018-03-15T00:55:00.394Z,14.57
2018-03-15T00:57:27.764Z,15.33
2018-03-15T00:59:55.114Z,13.27
2018-03-15T01:02:23.408Z,15.30
2018-03-15T01:04:51.477Z,12.73
2018-03-15T01:07:19.760Z,16.77
2018-03-15T01:09:47.320Z,14.37
2018-03-15T01:12:15.607Z,15.97
2018-03-15T01:14:43.688Z,14.70
2018-03-15T01:17:11.096Z,15.63
2018-03-15T01:19:38.476Z,17.03
2018-03-15T01:22:06.751Z,17.83
2018-03-15T01:24:34.100Z,17.97
2018-03-15T01:27:01.428Z,19.43
2018-03-15T01:29:29.596Z,17.73
2018-03-15T01:31:56.941Z,15.10
2018-03-15T01:34:24.376Z,16.57
2018-03-15T01:36:52.469Z,15.47
2018-03-15T01:39:19.861Z,18.43
2018-03-15T01:41:47.896Z,17.10
2018-03-15T01:44:15.268Z,19.07
2018-03-15T01:46:43.391Z,18.87
2018-03-15T01:49:11.493Z,16.50
2018-03-15T01:51:39.624Z,16.97
2018-03-15T01:54:07.718Z,17.43
2018-03-15T01:56:35.100Z,17.60
2018-03-15T01:59:02.430Z,16.67
2018-03-15T02:01:30.562Z,17.37
2018-03-15T02:03:58.859Z,16.83
2018-03-15T02:06:26.939Z,15.90
2018-03-15T02:08:55.234Z,13.13
2018-03-15T02:11:22.624Z,16.33
2018-03-15T02:13:49.985Z,16.50
2018-03-15T02:16:18.226Z,16.57
2018-03-15T02:18:46.493Z,15.80
2018-03-15T02:21:14.564Z,17.10
2018-03-15T02:23:42.844Z,16.30
2018-03-15T02:26:10.204Z,18.27
2018-03-15T02:28:38.393Z,17.37
2018-03-15T02:31:06.084Z,14.67
2018-03-15T02:33:33.481Z,15.57
2018-03-15T02:36:00.859Z,19.80
2018-03-15T02:38:28.998Z,18.83
2018-03-15T02:40:56.494Z,16.00
2018-03-15T02:43:24.703Z,18.47
2018-03-15T02:45:52.993Z,18.43
2018-03-15T02:48:21.764Z,17.77
2018-03-15T02:50:50.257Z,18.40
2018-03-15T02:53:18.375Z,19.43
2018-03-15T02:55:46.638Z,17.00
2018-03-15T02:58:14.935Z,15.20
2018-03-15T03:00:42.628Z,20.23
2018-03-15T03:03:10.045Z,18.13
2018-03-15T03:05:38.340Z,19.33
2018-03-15T03:08:05.701Z,21.13
2018-03-15T03:10:33.048Z,17.47
2018-03-15T03:13:00.388Z,18.83
2018-03-15T03:15:27.822Z,18.57
2018-03-15T03:17:56.167Z,21.60
2018-03-15T03:20:24.314Z,21.23
2018-03-15T03:22:51.672Z,16.53
2018-03-15T03:25:19.975Z,16.70
2018-03-15T03:27:48.255Z,19.90
2018-03-15T03:30:16.419Z,20.23
2018-03-15T03:32:43.797Z,20.13
2018-03-15T03:35:11.161Z,21.63
2018-03-15T03:37:38.564Z,20.27
2018-03-15T03:40:07.195Z,19.47
2018-03-15T03:42:35.478Z,21.23
2018-03-15T03:45:02.844Z,18.30
2018-03-15T03:47:31.171Z,21.63
2018-03-15T03:49:59.274Z,20.73
2018-03-15T03:52:26.612Z,22.63
2018-03-15T03:54:54.724Z,20.87
2018-03-15T03:57:22.083Z,20.60
2018-03-15T03:59:50.383Z,21.47
2018-03-15T04:02:18.895Z,19.83
2018-03-15T04:04:46.309Z,17.97
2018-03-15T04:07:13.704Z,15.33
2018-03-15T04:09:41.848Z,16.67
2018-03-15T04:12:09.339Z,21.43
2018-03-15T04:14:37.584Z,19.43
2018-03-15T04:17:04.947Z,21.53
2018-03-15T04:19:32.280Z,22.83
2018-03-15T04:21:59.651Z,20.07
2018-03-15T04:24:27.933Z,19.60
2018-03-15T04:26:55.299Z,19.73
2018-03-15T04:29:23.580Z,18.33
2018-03-15T04:31:50.928Z,25.00
2018-03-15T04:34:19.031Z,21.60
2018-03-15T04:36:47.300Z,22.53
2018-03-15T04:39:14.683Z,22.03
2018-03-15T04:41:42.096Z,22.30
2018-03-15T04:44:10.237Z,21.27
2018-03-15T04:46:37.593Z,18.50
2018-03-15T04:49:05.041Z,20.47
2018-03-15T04:51:33.375Z,22.43
2018-03-15T04:54:00.760Z,20.57
2018-03-15T04:56:28.120Z,20.80
2018-03-15T04:58:56.396Z,21.27
2018-03-15T05:01:23.797Z,25.20
2018-03-15T05:03:51.181Z,21.50
2018-03-15T05:06:18.544Z,20.77
2018-03-15T05:08:45.904Z,21.57
2018-03-15T05:11:13.252Z,20.23
2018-03-15T05:13:40.656Z,19.27
2018-03-15T05:16:08.913Z,17.50
2018-03-15T05:18:37.033Z,19.83
2018-03-15T05:21:05.108Z,20.47
2018-03-15T05:23:32.452Z,18.73
2018-03-15T05:26:00.756Z,20.73
2018-03-15T05:28:28.156Z,18.80
2018-03-15T05:30:56.489Z,21.20
2018-03-15T05:33:23.872Z,19.20
2018-03-15T05:35:51.977Z,18.50
2018-03-15T05:38:20.301Z,19.30
2018-03-15T05:40:47.632Z,18.60
2018-03-15T05:43:15.755Z,19.07
2018-03-15T05:45:44.080Z,19.30
2018-03-15T05:48:11.443Z,18.60
2018-03-15T05:50:38.802Z,18.10
2018-03-15T05:53:07.176Z,17.67
2018-03-15T05:55:34.641Z,18.37
2018-03-15T05:58:02.039Z,19.10
2018-03-15T06:00:30.141Z,22.70
2018-03-15T06:02:58.407Z,18.30
2018-03-15T06:05:26.093Z,16.93
2018-03-15T06:07:54.260Z,16.00
2018-03-15T06:10:22.397Z,17.27
2018-03-15T06:12:50.672Z,16.57
2018-03-15T06:15:18.793Z,13.20
2018-03-15T06:17:47.160Z,15.83
2018-03-15T06:20:15.297Z,18.10
2018-03-15T06:22:43.792Z,17.50
2018-03-15T06:25:11.188Z,18.17
2018-03-15T06:27:39.487Z,18.90
2018-03-15T06:30:06.874Z,17.37
2018-03-15T06:32:34.385Z,17.23
2018-03-15T06:35:01.729Z,13.97
2018-03-15T06:37:30.065Z,15.70
2018-03-15T06:39:57.440Z,17.97
2018-03-15T06:42:24.800Z,19.87
2018-03-15T06:44:52.925Z,16.97
2018-03-15T06:47:20.247Z,15.47
2018-03-15T06:49:48.544Z,17.90
2018-03-15T06:52:16.720Z,18.00
2018-03-15T06:54:44.872Z,15.63
2018-03-15T06:57:13.160Z,16.57
2018-03-15T06:59:40.560Z,16.80
2018-03-15T07:02:08.024Z,18.40
2018-03-15T07:04:35.400Z,23.67
2018-03-15T07:07:02.764Z,19.20
2018-03-15T07:09:31.059Z,17.53
2018-03-15T07:11:59.347Z,17.63
2018-03-15T07:14:26.685Z,20.93
2018-03-15T07:16:54.102Z,17.33
2018-03-15T07:19:21.433Z,19.13
2018-03-15T07:21:48.940Z,17.60
2018-03-15T07:24:16.316Z,16.83
2018-03-15T07:26:43.688Z,16.93
2018-03-15T07:29:12.280Z,19.87
2018-03-15T07:31:40.348Z,18.63
2018-03-15T07:34:08.511Z,16.57
2018-03-15T07:36:36.660Z,17.40
2018-03-15T07:39:04.983Z,16.27
2018-03-15T07:41:32.444Z,15.37
2018-03-15T07:43:59.793Z,17.63
2018-03-15T07:46:27.184Z,14.73
2018-03-15T07:48:54.564Z,16.00
2018-03-15T07:51:22.912Z,19.10
2018-03-15T07:53:50.281Z,15.50
2018-03-15T07:56:17.664Z,17.87
2018-03-15T07:58:45.959Z,15.90
2018-03-15T08:01:14.052Z,14.67
2018-03-15T08:03:41.431Z,15.10
2018-03-15T08:06:09.716Z,15.00
2018-03-15T08:08:37.112Z,15.10
2018-03-15T08:11:05.492Z,17.00
2018-03-15T08:13:33.817Z,16.07
2018-03-15T08:16:02.161Z,14.33
2018-03-15T08:18:29.507Z,15.67
2018-03-15T08:20:56.920Z,14.20
2018-03-15T08:23:25.046Z,15.50
2018-03-15T08:25:52.455Z,15.17
2018-03-15T08:28:20.663Z,12.50
2018-03-15T08:30:49.079Z,14.07
2018-03-15T08:33:17.243Z,14.87
2018-03-15T08:35:44.693Z,14.33
2018-03-15T08:38:12.141Z,14.03
2018-03-15T08:40:39.584Z,15.10
2018-03-15T08:43:08.117Z,14.50
2018-03-15T08:45:35.687Z,13.43
2018-03-15T08:48:03.380Z,13.57
2018-03-15T08:50:31.463Z,12.87
2018-03-15T08:52:59.525Z,15.40
2018-03-15T08:55:26.921Z,12.93
2018-03-15T08:57:55.048Z,13.13
2018-03-15T09:00:22.943Z,13.23
2018-03-15T09:02:50.328Z,13.33
2018-03-15T09:05:18.624Z,12.97
2018-03-15T09:07:46.896Z,12.63
2018-03-15T09:10:15.144Z,12.33
2018-03-15T09:12:43.259Z,11.13
2018-03-15T09:15:11.580Z,12.43
2018-03-15T09:17:39.739Z,13.43
2018-03-15T09:20:07.226Z,11.77
2018-03-15T09:22:34.633Z,18.83
2018-03-15T09:25:14.041Z,13.00
2018-03-15T09:27:45.065Z,10.97
2018-03-15T09:30:25.598Z,13.27
2018-03-15T09:32:57.074Z,11.40
2018-03-15T09:35:34.245Z,11.83
2018-03-15T09:38:01.741Z,11.60
2018-03-15T09:40:29.434Z,10.50
2018-03-15T09:42:57.548Z,11.60
2018-03-15T09:45:26.854Z,10.40
2018-03-15T09:47:58.048Z,10.60
2018-03-15T09:50:28.286Z,12.60
2018-03-15T09:52:55.763Z,11.80
2018-03-15T09:55:24.026Z,12.80
2018-03-15T09:57:51.480Z,10.93
2018-03-15T10:00:19.851Z,11.17
2018-03-15T10:02:48.240Z,12.43
2018-03-15T10:05:15.658Z,15.23
2018-03-15T10:07:45.000Z,10.63
2018-03-15T10:10:12.572Z,11.13
2018-03-15T10:12:40.076Z,10.97
2018-03-15T10:15:08.253Z,9.43
2018-03-15T10:17:37.757Z,11.27
2018-03-15T10:20:05.228Z,8.80
2018-03-15T10:22:32.646Z,11.00
2018-03-15T10:25:00.808Z,9.90
2018-03-15T10:27:29.131Z,9.93
2018-03-15T10:29:57.525Z,10.63
2018-03-15T10:32:24.914Z,9.63
2018-03-15T10:34:59.064Z,10.13
2018-03-15T10:37:26.644Z,9.07
2018-03-15T10:39:54.005Z,9.27
2018-03-15T10:42:21.471Z,8.47
2018-03-15T10:44:50.576Z,9.27
2018-03-15T10:47:17.997Z,13.77
2018-03-15T10:49:45.390Z,8.83
2018-03-15T10:52:13.344Z,8.97
2018-03-15T10:54:41.750Z,9.50
2018-03-15T10:57:09.142Z,7.90
2018-03-15T10:59:39.203Z,8.60
2018-03-15T11:02:08.394Z,9.83
2018-03-15T11:04:41.788Z,9.00
2018-03-15T11:07:15.289Z,8.77
2018-03-15T11:09:43.457Z,10.73
2018-03-15T11:12:13.519Z,9.17
2018-03-15T11:14:43.590Z,12.17
2018-03-15T11:17:15.253Z,10.90
2018-03-15T11:19:42.652Z,10.27
2018-03-15T11:22:10.065Z,12.17
2018-03-15T11:24:37.445Z,10.50
2018-03-15T11:27:04.912Z,9.23
2018-03-15T11:29:36.938Z,10.97
2018-03-15T11:32:06.720Z,11.17
2018-03-15T11:34:35.761Z,14.30
2018-03-15T11:37:05.256Z,11.03
2018-03-15T11:39:34.238Z,12.57
2018-03-15T11:42:04.309Z,10.37
2018-03-15T11:44:32.613Z,13.73
2018-03-15T11:47:00.800Z,12.80
2018-03-15T11:49:29.283Z,11.40
2018-03-15T11:52:07.475Z,12.27
2018-03-15T11:54:39.632Z,13.03
2018-03-15T11:57:07.163Z,11.13
2018-03-15T11:59:39.154Z,11.07
2018-03-15T12:02:07.644Z,10.97
2018-03-15T12:04:36.003Z,11.23
2018-03-15T12:07:06.268Z,10.30
2018-03-15T12:09:37.092Z,10.40
2018-03-15T12:12:09.492Z,10.43
2018-03-15T12:14:39.040Z,11.37
2018-03-15T12:17:07.533Z,12.77
2018-03-15T12:19:35.669Z,11.50
2018-03-15T12:22:03.980Z,10.23
2018-03-15T12:24:35.200Z,10.90
2018-03-15T12:27:04.230Z,11.47
2018-03-15T12:29:35.505Z,10.50
2018-03-15T12:32:02.914Z,12.00
2018-03-15T12:34:32.034Z,14.07
2018-03-15T12:37:02.498Z,11.90
2018-03-15T12:39:36.638Z,14.00
2018-03-15T12:42:04.946Z,12.17
2018-03-15T12:44:32.389Z,12.73
2018-03-15T12:47:02.523Z,12.13
2018-03-15T12:49:33.616Z,9.80
2018-03-15T12:52:04.884Z,10.37
2018-03-15T12:54:33.191Z,11.90
2018-03-15T12:57:04.504Z,11.23
2018-03-15T12:59:35.370Z,10.47
2018-03-15T13:02:07.998Z,11.67
2018-03-15T13:04:36.212Z,10.50
2018-03-15T13:07:11.519Z,11.87
2018-03-15T13:09:42.520Z,10.37
2018-03-15T13:12:10.721Z,10.60
2018-03-15T13:14:44.452Z,10.93
2018-03-15T13:17:21.184Z,10.37
2018-03-15T13:19:49.553Z,11.10
2018-03-15T13:22:21.688Z,12.57
2018-03-15T13:24:50.901Z,13.00
2018-03-15T13:27:18.364Z,11.43
2018-03-15T13:29:48.324Z,11.77
2018-03-15T13:32:18.744Z,11.07
2018-03-15T13:34:46.960Z,10.40
2018-03-15T13:37:15.432Z,12.13
2018-03-15T13:39:45.686Z,13.37
2018-03-15T13:42:16.557Z,12.13
2018-03-15T13:44:45.681Z,10.93
2018-03-15T13:47:17.957Z,11.10
2018-03-15T13:49:49.115Z,13.47
2018-03-15T13:52:21.358Z,11.80
2018-03-15T13:54:50.596Z,11.57
2018-03-15T13:57:20.659Z,12.60
2018-03-15T13:59:50.662Z,14.47
2018-03-15T14:02:19.781Z,10.30
2018-03-15T14:04:53.931Z,12.57
2018-03-15T14:07:22.263Z,11.93
2018-03-15T14:09:54.811Z,10.97
2018-03-15T14:12:24.159Z,11.57
2018-03-15T14:14:55.053Z,11.07
2018-03-15T14:17:25.305Z,11.97
2018-03-15T14:19:56.325Z,10.23
2018-03-15T14:22:25.413Z,10.30
2018-03-15T14:24:56.333Z,13.43
2018-03-15T14:27:27.669Z,11.10
2018-03-15T14:29:57.895Z,11.83
2018-03-15T14:32:28.252Z,11.87
2018-03-15T14:35:02.520Z,11.00
2018-03-15T14:37:33.835Z,11.37
2018-03-15T14:40:01.343Z,11.50
2018-03-15T14:42:30.782Z,12.77
2018-03-15T14:44:59.222Z,11.80
2018-03-15T14:47:30.496Z,14.07
2018-03-15T14:50:01.701Z,12.87
2018-03-15T14:52:32.974Z,11.47
2018-03-15T14:55:04.041Z,13.20
2018-03-15T14:57:36.088Z,11.67
2018-03-15T15:00:08.072Z,18.43
2018-03-15T15:02:35.440Z,12.63
2018-03-15T15:05:05.673Z,12.37
2018-03-15T15:07:34.932Z,12.63
2018-03-15T15:10:07.416Z,15.30
2018-03-15T15:12:37.808Z,12.57
2018-03-15T15:15:09.654Z,12.53
2018-03-15T15:17:42.784Z,12.80
2018-03-15T15:20:10.256Z,12.93
2018-03-15T15:22:57.526Z,12.57
2018-03-15T15:25:33.389Z,12.50
2018-03-15T15:28:04.927Z,16.67
2018-03-15T15:30:37.986Z,14.00
2018-03-15T15:33:08.878Z,12.47
2018-03-15T15:35:43.641Z,13.03
2018-03-15T15:38:11.997Z,11.60
2018-03-15T15:40:43.049Z,12.53
2018-03-15T15:43:13.784Z,14.07
2018-03-15T15:45:46.984Z,18.63
2018-03-15T15:48:20.415Z,12.93
2018-03-15T15:50:52.244Z,13.97
2018-03-15T15:53:25.204Z,12.33
2018-03-15T15:56:00.273Z,13.47
2018-03-15T15:58:28.605Z,11.70
2018-03-15T16:00:59.792Z,11.93
2018-03-15T16:03:28.999Z,10.87
2018-03-15T16:05:56.364Z,12.07
2018-03-15T16:08:27.376Z,12.53
2018-03-15T16:10:58.471Z,11.40
2018-03-15T16:13:27.935Z,12.50
2018-03-15T16:15:58.140Z,13.37
2018-03-15T16:18:26.538Z,12.50
2018-03-15T16:20:54.744Z,12.43
2018-03-15T16:23:23.060Z,12.07
2018-03-15T16:25:53.349Z,12.40
2018-03-15T16:28:27.413Z,12.37
2018-03-15T16:30:57.433Z,11.20
2018-03-15T16:33:30.324Z,8.00
2018-03-15T16:36:01.160Z,10.47
2018-03-15T16:38:31.175Z,12.73
2018-03-15T16:41:02.899Z,11.83
2018-03-15T16:43:32.117Z,10.53
2018-03-15T16:46:00.427Z,12.47
2018-03-15T16:48:30.528Z,9.80
2018-03-15T16:51:01.142Z,11.60
2018-03-15T16:53:31.881Z,13.40
2018-03-15T16:56:04.859Z,12.10
2018-03-15T16:58:33.792Z,10.67
2018-03-15T17:01:02.836Z,11.80
2018-03-15T17:03:34.777Z,11.37
2018-03-15T17:06:08.872Z,10.87
2018-03-15T17:08:36.253Z,13.27
2018-03-15T17:11:06.044Z,11.27
2018-03-15T17:13:39.531Z,11.80
2018-03-15T17:16:10.762Z,10.90
2018-03-15T17:18:41.701Z,11.57
2018-03-15T17:21:17.125Z,11.53
2018-03-15T17:23:51.964Z,11.73
2018-03-15T17:26:23.108Z,11.20
2018-03-15T17:28:55.162Z,11.90
2018-03-15T17:31:28.320Z,13.40
2018-03-15T17:34:01.764Z,11.90
2018-03-15T17:36:33.166Z,10.57
2018-03-15T17:39:04.523Z,11.10
2018-03-15T17:41:41.711Z,11.17
2018-03-15T17:44:11.782Z,10.87
2018-03-15T17:46:43.037Z,10.63
2018-03-15T17:49:19.968Z,12.40
2018-03-15T17:51:52.433Z,12.83
2018-03-15T17:54:27.568Z,12.63
2018-03-15T17:57:04.593Z,10.63
2018-03-15T17:59:35.566Z,12.53
2018-03-15T18:02:04.070Z,13.77
2018-03-15T18:04:35.160Z,12.53
2018-03-15T18:07:06.206Z,13.30
2018-03-15T18:09:38.417Z,12.73
2018-03-15T18:12:09.143Z,12.47
2018-03-15T18:14:38.640Z,11.70
2018-03-15T18:17:07.045Z,14.33
2018-03-15T18:19:39.260Z,13.17
2018-03-15T18:22:10.243Z,11.47
2018-03-15T18:24:44.438Z,13.33
2018-03-15T18:27:14.781Z,12.93
2018-03-15T18:29:43.999Z,11.80
2018-03-15T18:32:16.324Z,9.63
2018-03-15T18:34:44.724Z,10.30
2018-03-15T18:37:13.042Z,9.57
2018-03-15T18:39:44.528Z,11.50
2018-03-15T18:42:21.445Z,8.97
2018-03-15T18:44:56.500Z,16.33
2018-03-15T18:47:25.826Z,12.03
2018-03-15T18:49:55.219Z,11.13
2018-03-15T18:52:23.890Z,10.40
2018-03-15T18:54:52.107Z,12.93
2018-03-15T18:57:21.939Z,12.33
2018-03-15T18:59:52.038Z,14.57
2018-03-15T19:02:21.081Z,10.27
2018-03-15T19:11:45.123Z,11.23
2018-03-15T19:14:14.321Z,12.80
2018-03-15T19:16:45.233Z,12.70
2018-03-15T19:19:23.529Z,10.77
2018-03-15T19:21:59.031Z,9.63
2018-03-15T19:24:28.212Z,11.40
2018-03-15T19:26:57.590Z,11.53
2018-03-15T19:29:31.972Z,13.47
2018-03-15T19:32:02.010Z,11.97
2018-03-15T19:34:32.166Z,12.23
2018-03-15T19:37:03.142Z,13.47
2018-03-15T19:39:33.124Z,13.07
2018-03-15T19:42:04.636Z,11.97
2018-03-15T19:44:33.176Z,13.43
2018-03-15T19:47:05.352Z,12.77
2018-03-15T19:49:34.401Z,14.97
2018-03-15T19:52:07.381Z,14.73
2018-03-15T19:54:38.550Z,12.90
2018-03-15T19:57:10.563Z,12.07
2018-03-15T19:59:41.222Z,13.33
2018-03-15T20:02:12.327Z,13.80
2018-03-15T20:04:41.599Z,11.80
2018-03-15T20:07:12.137Z,12.50
2018-03-15T20:09:44.176Z,11.10
2018-03-15T20:12:14.494Z,10.93
2018-03-15T20:14:47.629Z,11.40
2018-03-15T20:17:17.140Z,11.37
2018-03-15T20:19:45.688Z,9.97
2018-03-15T20:22:26.851Z,7.90
2018-03-15T20:24:55.162Z,8.57
2018-03-15T20:27:29.247Z,8.83
2018-03-15T20:30:03.173Z,9.30
2018-03-15T20:32:39.460Z,8.33
2018-03-15T20:35:07.329Z,10.23
2018-03-15T20:37:35.422Z,8.20
2018-03-15T20:40:13.185Z,6.30
2018-03-15T20:42:44.837Z,7.63
2018-03-15T20:45:20.842Z,6.53
2018-03-15T20:48:01.003Z,7.37
2018-03-15T20:50:28.601Z,6.47
2018-03-15T20:52:58.499Z,6.60
2018-03-15T20:55:32.857Z,7.13
2018-03-15T20:58:00.410Z,6.43
2018-03-15T21:00:28.888Z,7.03
2018-03-15T21:02:58.353Z,7.37
2018-03-15T21:05:32.643Z,8.50
2018-03-15T21:08:01.893Z,5.70
2018-03-15T21:10:31.282Z,5.67
2018-03-15T21:13:00.478Z,7.50
2018-03-15T21:15:29.030Z,6.33
2018-03-15T21:21:02.307Z,5.37
2018-03-15T21:23:31.729Z,6.40
2018-03-15T21:26:04.534Z,6.20
2018-03-15T21:28:34.560Z,6.73
2018-03-15T21:31:02.266Z,6.00
2018-03-15T21:33:31.540Z,6.37
2018-03-15T21:35:58.963Z,6.17
2018-03-15T21:38:26.595Z,7.60
2018-03-15T21:40:55.268Z,6.87
2018-03-15T21:43:26.000Z,9.50
2018-03-15T21:45:55.029Z,6.67
2018-03-15T21:48:28.957Z,6.60
2018-03-15T21:51:00.290Z,7.93
2018-03-15T21:53:32.013Z,7.37
2018-03-15T21:56:01.353Z,6.70
2018-03-15T21:58:31.409Z,7.13
2018-03-15T22:01:00.741Z,6.73
2018-03-15T22:03:29.051Z,6.37
2018-03-15T22:05:58.022Z,7.37
2018-03-15T22:08:26.986Z,7.80
2018-03-15T22:10:55.995Z,6.90
2018-03-15T22:13:25.100Z,8.47
2018-03-15T22:15:54.408Z,8.03
2018-03-15T22:18:23.666Z,7.23
2018-03-15T22:20:51.005Z,7.00
2018-03-15T22:23:18.359Z,7.40
2018-03-15T22:25:45.702Z,8.13
2018-03-15T22:28:13.864Z,6.53
2018-03-15T22:30:42.065Z,9.00
2018-03-15T22:33:09.469Z,6.67
2018-03-15T22:35:36.830Z,8.03
2018-03-15T22:38:04.253Z,7.53
2018-03-15T22:40:31.685Z,8.07
2018-03-15T22:42:59.033Z,9.13
2018-03-15T22:45:27.345Z,8.70
2018-03-15T22:47:55.439Z,8.17
2018-03-15T22:50:23.562Z,8.27
2018-03-15T22:52:50.989Z,9.57
2018-03-15T22:55:19.024Z,7.47
2018-03-15T22:57:47.143Z,8.63
2018-03-15T23:00:14.535Z,8.40
2018-03-15T23:02:42.559Z,10.10
2018-03-15T23:05:10.886Z,7.13
2018-03-15T23:07:39.107Z,7.67
2018-03-15T23:10:07.316Z,7.73
2018-03-15T23:12:35.611Z,7.67
2018-03-15T23:15:02.996Z,7.07
2018-03-15T23:17:31.312Z,6.90
2018-03-15T23:19:58.728Z,6.47
2018-03-15T23:22:26.078Z,7.93
2018-03-15T23:24:54.356Z,6.83
2018-03-15T23:27:22.492Z,6.93
2018-03-15T23:29:49.873Z,6.87
2018-03-15T23:32:18.055Z,7.03
2018-03-15T23:34:45.492Z,6.27
2018-03-15T23:37:13.558Z,7.43
2018-03-15T23:39:40.955Z,7.13
2018-03-15T23:42:09.248Z,6.20
2018-03-15T23:44:36.623Z,7.93
2018-03-15T23:47:04.073Z,5.90
2018-03-15T23:49:31.340Z,5.80
2018-03-15T23:51:58.761Z,5.90
2018-03-15T23:54:27.165Z,7.13
2018-03-15T23:56:54.714Z,4.97
2018-03-15T23:59:22.056Z,5.20
